Jolyn — PJWG — position and weather

sailwx.info

Track history (hours):
 
Tides and Currents Weather Stations Pressure Air Temp Water Temp Dewpoint Dewpoint Depression Visibility Wind Speed Wind Dir Waves Ship Positions

Jolyn

Last reported at 2016-Sep-27 19:33 UTC. Time now 2016-Sep-28 17:10 UTC.
Position N 55°29' E 014°58'.

Length 89 m; draft 5.3 m.

Type: Cargo ship. MMSI: 306813000.

Date/timePositionNaut miles runAvg speedWind from/ knotsBaromVisibWave heightAir tempDewpointWater temp
2016-Sep-27 19:33N 55°29' E 014°58'5210.3
2016-Sep-27 14:33N 54°57' E 013°47'1110.5
2016-Sep-27 13:33N 54°53' E 013°30'3110.3
2016-Sep-27 10:33N 54°40' E 012°41'88 8.8
2016-Sep-27 00:33N 54°24' E 010°12'23 5.7
2016-Sep-26 20:33N 54°14' E 009°37'8 8.1
2016-Sep-26 19:33N 54°10' E 009°25'24 6.0
2016-Sep-26 15:33N 53°46' E 009°24'2110.7
2016-Sep-26 13:33N 53°33' E 009°53'3 1.4
2016-Sep-26 11:33N 53°31' E 009°57'1 0.4
2016-Sep-26 08:32N 53°32' E 009°57'0 0.0
2016-Sep-26 02:34N 53°32' E 009°57'1 1.0
2016-Sep-26 01:33N 53°31' E 009°57'0 0.0
2016-Sep-26 00:33N 53°31' E 009°57'0 0.0
2016-Sep-25 21:33N 53°31' E 009°57'0 0.0
2016-Sep-25 17:34N 53°31' E 009°57'0 0.0
2016-Sep-25 16:34N 53°31' E 009°57'0 0.0
2016-Sep-25 15:34N 53°31' E 009°57'0 0.0
2016-Sep-25 14:34N 53°31' E 009°57'5 2.7
2016-Sep-25 12:34N 53°33' E 009°48'8 8.1
2016-Sep-25 11:33N 53°36' E 009°36'2 1.6
2016-Sep-25 10:31N 53°37' E 009°33'0 0.1
2016-Sep-25 09:31N 53°37' E 009°33'0 0.1
2016-Sep-25 07:31N 53°37' E 009°33'0 0.0
2016-Sep-25 04:31N 53°37' E 009°33'0 0.0
2016-Sep-25 00:31N 53°37' E 009°33'0 0.0
2016-Sep-24 22:31N 53°37' E 009°33'0 0.0
2016-Sep-24 21:31N 53°37' E 009°33'0 0.1
2016-Sep-24 19:31N 53°37' E 009°33'0 0.0
2016-Sep-24 18:31N 53°37' E 009°33'0 0.0
2016-Sep-24 17:31N 53°37' E 009°33'0 0.0
2016-Sep-24 16:31N 53°37' E 009°33'0 0.1
2016-Sep-24 14:31N 53°37' E 009°33'0 0.0
2016-Sep-24 12:31N 53°37' E 009°33'0 0.0
2016-Sep-24 10:31N 53°37' E 009°33'0 0.0
2016-Sep-24 09:31N 53°37' E 009°33'0 0.0
2016-Sep-24 03:31N 53°37' E 009°33'0 0.1
2016-Sep-24 02:31N 53°37' E 009°33'0 0.0
2016-Sep-24 01:31N 53°37' E 009°33'0 0.0
2016-Sep-24 00:31N 53°37' E 009°33'0 0.0
2016-Sep-23 19:31N 53°37' E 009°33'0 0.0
2016-Sep-23 17:31N 53°37' E 009°33'0 0.0
2016-Sep-23 16:31N 53°37' E 009°33'5 5.7
2016-Sep-23 15:33N 53°42' E 009°30'2110.3
2016-Sep-23 13:34N 53°51' E 008°59'4010.0
2016-Sep-23 09:33N 53°56' E 007°51'3010.0
2016-Sep-23 06:33N 53°50' E 007°01'2110.3
2016-Sep-23 04:33N 53°46' E 006°27'1110.6
2016-Sep-23 03:33N 53°43' E 006°10'1111.1
2016-Sep-23 02:33N 53°39' E 005°52'1111.5
2016-Sep-23 01:33N 53°35' E 005°34'1211.8
2016-Sep-23 00:33N 53°31' E 005°15'171 8.5
2016-Sep-22 04:27N 53°35' E 000°27'0 0.0
2016-Sep-22 03:30N 53°35' E 000°27'0 0.0
2016-Sep-22 00:30N 53°35' E 000°27'0 0.0
2016-Sep-21 23:30N 53°35' E 000°27'0 0.0
2016-Sep-21 22:33N 53°35' E 000°27'0 0.0
2016-Sep-21 19:27N 53°35' E 000°27'0 0.0
2016-Sep-21 16:27N 53°35' E 000°27'0 0.0
2016-Sep-21 09:27N 53°34' E 000°27'0 0.0
2016-Sep-21 08:33N 53°34' E 000°27'0 0.0
2016-Sep-21 05:33N 53°34' E 000°27'0 0.1
2016-Sep-21 03:24N 53°35' E 000°27'0 0.0
2016-Sep-21 02:24N 53°35' E 000°27'  
2016-Sep-18 02:32N 53°33' E 000°22'10 9.8
2016-Sep-18 01:33N 53°34' E 000°38'11 9.8
2016-Sep-18 00:26N 53°35' E 000°56'  
Track history (hours):
 
Tides and Currents Weather Stations Pressure Air Temp Water Temp Dewpoint Dewpoint Depression Visibility Wind Speed Wind Dir Waves Ship Positions

Jolyn

Last reported at 2016-Sep-27 19:33 UTC. Time now 2016-Sep-28 17:10 UTC.
Position N 55°29' E 014°58'.

Length 89 m; draft 5.3 m.

Type: Cargo ship. MMSI: 306813000.

Date/timePositionNaut miles runAvg speedWind from/ knotsBaromVisibWave heightAir tempDewpointWater temp
2016-Sep-27 19:33N 55°29' E 014°58'5210.3
2016-Sep-27 14:33N 54°57' E 013°47'1110.5
2016-Sep-27 13:33N 54°53' E 013°30'3110.3
2016-Sep-27 10:33N 54°40' E 012°41'88 8.8
2016-Sep-27 00:33N 54°24' E 010°12'23 5.7
2016-Sep-26 20:33N 54°14' E 009°37'8 8.1
2016-Sep-26 19:33N 54°10' E 009°25'24 6.0
2016-Sep-26 15:33N 53°46' E 009°24'2110.7
2016-Sep-26 13:33N 53°33' E 009°53'3 1.4
2016-Sep-26 11:33N 53°31' E 009°57'1 0.4
2016-Sep-26 08:32N 53°32' E 009°57'0 0.0
2016-Sep-26 02:34N 53°32' E 009°57'1 1.0
2016-Sep-26 01:33N 53°31' E 009°57'0 0.0
2016-Sep-26 00:33N 53°31' E 009°57'0 0.0
2016-Sep-25 21:33N 53°31' E 009°57'0 0.0
2016-Sep-25 17:34N 53°31' E 009°57'0 0.0
2016-Sep-25 16:34N 53°31' E 009°57'0 0.0
2016-Sep-25 15:34N 53°31' E 009°57'0 0.0
2016-Sep-25 14:34N 53°31' E 009°57'5 2.7
2016-Sep-25 12:34N 53°33' E 009°48'8 8.1
2016-Sep-25 11:33N 53°36' E 009°36'2 1.6
2016-Sep-25 10:31N 53°37' E 009°33'0 0.1
2016-Sep-25 09:31N 53°37' E 009°33'0 0.1
2016-Sep-25 07:31N 53°37' E 009°33'0 0.0
2016-Sep-25 04:31N 53°37' E 009°33'0 0.0
2016-Sep-25 00:31N 53°37' E 009°33'0 0.0
2016-Sep-24 22:31N 53°37' E 009°33'0 0.0
2016-Sep-24 21:31N 53°37' E 009°33'0 0.1
2016-Sep-24 19:31N 53°37' E 009°33'0 0.0
2016-Sep-24 18:31N 53°37' E 009°33'0 0.0
2016-Sep-24 17:31N 53°37' E 009°33'0 0.0
2016-Sep-24 16:31N 53°37' E 009°33'0 0.1
2016-Sep-24 14:31N 53°37' E 009°33'0 0.0
2016-Sep-24 12:31N 53°37' E 009°33'0 0.0
2016-Sep-24 10:31N 53°37' E 009°33'0 0.0
2016-Sep-24 09:31N 53°37' E 009°33'0 0.0
2016-Sep-24 03:31N 53°37' E 009°33'0 0.1
2016-Sep-24 02:31N 53°37' E 009°33'0 0.0
2016-Sep-24 01:31N 53°37' E 009°33'0 0.0
2016-Sep-24 00:31N 53°37' E 009°33'0 0.0
2016-Sep-23 19:31N 53°37' E 009°33'0 0.0
2016-Sep-23 17:31N 53°37' E 009°33'0 0.0
2016-Sep-23 16:31N 53°37' E 009°33'5 5.7
2016-Sep-23 15:33N 53°42' E 009°30'2110.3
2016-Sep-23 13:34N 53°51' E 008°59'4010.0
2016-Sep-23 09:33N 53°56' E 007°51'3010.0
2016-Sep-23 06:33N 53°50' E 007°01'2110.3
2016-Sep-23 04:33N 53°46' E 006°27'1110.6
2016-Sep-23 03:33N 53°43' E 006°10'1111.1
2016-Sep-23 02:33N 53°39' E 005°52'1111.5
2016-Sep-23 01:33N 53°35' E 005°34'1211.8
2016-Sep-23 00:33N 53°31' E 005°15'171 8.5
2016-Sep-22 04:27N 53°35' E 000°27'0 0.0
2016-Sep-22 03:30N 53°35' E 000°27'0 0.0
2016-Sep-22 00:30N 53°35' E 000°27'0 0.0
2016-Sep-21 23:30N 53°35' E 000°27'0 0.0
2016-Sep-21 22:33N 53°35' E 000°27'0 0.0
2016-Sep-21 19:27N 53°35' E 000°27'0 0.0
2016-Sep-21 16:27N 53°35' E 000°27'0 0.0
2016-Sep-21 09:27N 53°34' E 000°27'0 0.0
2016-Sep-21 08:33N 53°34' E 000°27'0 0.0
2016-Sep-21 05:33N 53°34' E 000°27'0 0.1
2016-Sep-21 03:24N 53°35' E 000°27'0 0.0
2016-Sep-21 02:24N 53°35' E 000°27'  
2016-Sep-18 02:32N 53°33' E 000°22'10 9.8
2016-Sep-18 01:33N 53°34' E 000°38'11 9.8
2016-Sep-18 00:26N 53°35' E 000°56'  

Dump ship's entire track history